Terminal Aerodrome Forecast
Issued by NWS

Current Version | Previous Version | Graphics & Text | Print | Product List | Glossary On
Versions: 1 2 3 4 5 6 7 8 9 10 11 12 13 14 15 16 17 18 19 20 21 22 23 24
000
FTUS41 KPBZ 240200 AAA
TAFMGW
TAF AMD
KMGW 240248Z 2403/2424 VRB03KT 3SM -RASN OVC025
      TEMPO 2403/2405 1SM -SN OVC015
     FM240500 VRB03KT 2SM -SN OVC006
     FM241300 VRB03KT 4SM BR OVC015
     FM241800 25007KT P6SM BKN025=

USA.gov is the U.S. government's official web portal to all federal, state and local government web resources and services.